Tokuyo Maru No.15 — JD2184 — position and weather

sailwx.info

Track history (hours):
 
Tides and Currents Weather Stations Pressure Air Temp Water Temp Dewpoint Dewpoint Depression Visibility Wind Speed Wind Dir Waves Ship Positions

Tokuyo Maru No.15

Last reported at 2017-Feb-22 01:33 UTC. Time now 2017-Feb-22 01:44 UTC.
Position N 35°31' E 139°46'.

Length 66 m; draft 4.5 m.

Type: Tanker. MMSI: 431402034.

Date/timePositionNaut miles runAvg speedWind from/ knotsBaromVisibWave heightAir tempDewpointWater temp
2017-Feb-22 01:33N 35°31' E 139°46'0 0.0
2017-Feb-22 00:33N 35°31' E 139°46'0 0.0
2017-Feb-21 23:33N 35°31' E 139°46'0 0.4
2017-Feb-21 22:33N 35°31' E 139°46'3 3.4
2017-Feb-21 21:33N 35°29' E 139°49'0 0.0
2017-Feb-21 20:31N 35°29' E 139°49'0 0.0
2017-Feb-21 19:32N 35°29' E 139°49'0 0.0
2017-Feb-21 18:32N 35°29' E 139°49'4 4.5
2017-Feb-21 17:34N 35°25' E 139°47'1111.2
2017-Feb-21 16:32N 35°13' E 139°47'1111.4
2017-Feb-21 15:34N 35°04' E 139°40'  
2017-Feb-19 10:07N 35°03' E 139°33'712.0
2017-Feb-19 09:33N 35°07' E 139°40'1110.8
2017-Feb-19 08:32N 35°17' E 139°45'1010.0
2017-Feb-19 07:33N 35°26' E 139°46'9 2.6
2017-Feb-19 04:18N 35°30' E 139°56'2 2.0
2017-Feb-19 03:27N 35°29' E 139°54'0 0.0
2017-Feb-19 02:18N 35°29' E 139°54'0 0.0
2017-Feb-19 01:24N 35°29' E 139°54'0 0.0
2017-Feb-19 00:30N 35°29' E 139°54'0 0.0
2017-Feb-18 23:24N 35°29' E 139°54'0 0.1
2017-Feb-18 22:33N 35°29' E 139°54'0 0.0
2017-Feb-18 21:29N 35°29' E 139°54'0 0.0
2017-Feb-18 20:32N 35°29' E 139°54'2 2.5
2017-Feb-18 19:33N 35°28' E 139°51'1111.1
2017-Feb-18 18:34N 35°19' E 139°44'1110.6
2017-Feb-18 17:34N 35°08' E 139°46'12 0.5
2017-Feb-17 18:24N 34°57' E 139°44'1011.8
2017-Feb-17 17:33N 35°07' E 139°45'1211.9
2017-Feb-17 16:33N 35°19' E 139°43'1111.2
2017-Feb-17 15:34N 35°28' E 139°50'7 6.6
2017-Feb-17 14:33N 35°34' E 139°54'0 0.0
2017-Feb-17 13:20N 35°34' E 139°54'0 0.0
2017-Feb-17 12:25N 35°34' E 139°54'0 0.0
2017-Feb-17 09:10N 35°34' E 139°54'6 0.4
2017-Feb-16 18:29N 35°33' E 140°02'1212.6
2017-Feb-16 17:33N 35°27' E 139°49'1110.8
2017-Feb-16 16:33N 35°16' E 139°46'1111.1
2017-Feb-16 15:33N 35°06' E 139°42'  
2017-Feb-14 08:07N 35°16' E 139°46'611.1
2017-Feb-14 07:33N 35°21' E 139°42'1110.9
2017-Feb-14 06:33N 35°29' E 139°51'3 0.3
2017-Feb-13 21:33N 35°29' E 139°54'0 0.0
2017-Feb-13 20:31N 35°29' E 139°54'0 0.0
2017-Feb-13 19:31N 35°29' E 139°54'0 0.0
2017-Feb-13 18:31N 35°29' E 139°54'0 0.0
2017-Feb-13 17:31N 35°29' E 139°54'0 0.0
2017-Feb-13 16:31N 35°29' E 139°54'0 0.0
2017-Feb-13 15:31N 35°29' E 139°54'0 0.0
2017-Feb-13 13:28N 35°29' E 139°54'0 0.0
2017-Feb-13 12:31N 35°29' E 139°54'0 0.0
2017-Feb-13 09:31N 35°29' E 139°54'0 0.0
2017-Feb-13 07:22N 35°29' E 139°54'0 0.0
2017-Feb-13 06:22N 35°29' E 139°54'0 0.0
2017-Feb-13 05:31N 35°29' E 139°54'0 0.0
2017-Feb-13 04:31N 35°29' E 139°54'0 0.0
2017-Feb-13 03:31N 35°29' E 139°54'0 0.0
2017-Feb-13 02:07N 35°29' E 139°54'0 0.0
2017-Feb-13 01:19N 35°29' E 139°54'0 0.0
2017-Feb-13 00:31N 35°29' E 139°54'0 0.0
2017-Feb-12 23:10N 35°29' E 139°54'0 0.1
2017-Feb-12 22:31N 35°29' E 139°54'0 0.0
2017-Feb-12 21:25N 35°29' E 139°54'0 0.1
2017-Feb-12 20:31N 35°29' E 139°54'0 0.0
2017-Feb-12 18:25N 35°29' E 139°54'0 0.0
2017-Feb-12 17:31N 35°29' E 139°54'0 0.0
2017-Feb-12 16:28N 35°29' E 139°54'0 0.0
2017-Feb-12 15:31N 35°29' E 139°54'0 0.0
2017-Feb-12 14:31N 35°29' E 139°54'0 0.0
2017-Feb-12 13:31N 35°29' E 139°54'0 0.0
2017-Feb-12 12:31N 35°29' E 139°54'0 0.0
2017-Feb-12 11:31N 35°29' E 139°54'0 0.0
2017-Feb-12 10:28N 35°29' E 139°54'0 0.0
2017-Feb-12 09:31N 35°29' E 139°54'0 0.1
2017-Feb-12 08:33N 35°29' E 139°54'1110.7
2017-Feb-12 07:33N 35°21' E 139°45'  
Track history (hours):
 
Tides and Currents Weather Stations Pressure Air Temp Water Temp Dewpoint Dewpoint Depression Visibility Wind Speed Wind Dir Waves Ship Positions

Tokuyo Maru No.15

Last reported at 2017-Feb-22 01:33 UTC. Time now 2017-Feb-22 01:44 UTC.
Position N 35°31' E 139°46'.

Length 66 m; draft 4.5 m.

Type: Tanker. MMSI: 431402034.

Date/timePositionNaut miles runAvg speedWind from/ knotsBaromVisibWave heightAir tempDewpointWater temp
2017-Feb-22 01:33N 35°31' E 139°46'0 0.0
2017-Feb-22 00:33N 35°31' E 139°46'0 0.0
2017-Feb-21 23:33N 35°31' E 139°46'0 0.4
2017-Feb-21 22:33N 35°31' E 139°46'3 3.4
2017-Feb-21 21:33N 35°29' E 139°49'0 0.0
2017-Feb-21 20:31N 35°29' E 139°49'0 0.0
2017-Feb-21 19:32N 35°29' E 139°49'0 0.0
2017-Feb-21 18:32N 35°29' E 139°49'4 4.5
2017-Feb-21 17:34N 35°25' E 139°47'1111.2
2017-Feb-21 16:32N 35°13' E 139°47'1111.4
2017-Feb-21 15:34N 35°04' E 139°40'  
2017-Feb-19 10:07N 35°03' E 139°33'712.0
2017-Feb-19 09:33N 35°07' E 139°40'1110.8
2017-Feb-19 08:32N 35°17' E 139°45'1010.0
2017-Feb-19 07:33N 35°26' E 139°46'9 2.6
2017-Feb-19 04:18N 35°30' E 139°56'2 2.0
2017-Feb-19 03:27N 35°29' E 139°54'0 0.0
2017-Feb-19 02:18N 35°29' E 139°54'0 0.0
2017-Feb-19 01:24N 35°29' E 139°54'0 0.0
2017-Feb-19 00:30N 35°29' E 139°54'0 0.0
2017-Feb-18 23:24N 35°29' E 139°54'0 0.1
2017-Feb-18 22:33N 35°29' E 139°54'0 0.0
2017-Feb-18 21:29N 35°29' E 139°54'0 0.0
2017-Feb-18 20:32N 35°29' E 139°54'2 2.5
2017-Feb-18 19:33N 35°28' E 139°51'1111.1
2017-Feb-18 18:34N 35°19' E 139°44'1110.6
2017-Feb-18 17:34N 35°08' E 139°46'12 0.5
2017-Feb-17 18:24N 34°57' E 139°44'1011.8
2017-Feb-17 17:33N 35°07' E 139°45'1211.9
2017-Feb-17 16:33N 35°19' E 139°43'1111.2
2017-Feb-17 15:34N 35°28' E 139°50'7 6.6
2017-Feb-17 14:33N 35°34' E 139°54'0 0.0
2017-Feb-17 13:20N 35°34' E 139°54'0 0.0
2017-Feb-17 12:25N 35°34' E 139°54'0 0.0
2017-Feb-17 09:10N 35°34' E 139°54'6 0.4
2017-Feb-16 18:29N 35°33' E 140°02'1212.6
2017-Feb-16 17:33N 35°27' E 139°49'1110.8
2017-Feb-16 16:33N 35°16' E 139°46'1111.1
2017-Feb-16 15:33N 35°06' E 139°42'  
2017-Feb-14 08:07N 35°16' E 139°46'611.1
2017-Feb-14 07:33N 35°21' E 139°42'1110.9
2017-Feb-14 06:33N 35°29' E 139°51'3 0.3
2017-Feb-13 21:33N 35°29' E 139°54'0 0.0
2017-Feb-13 20:31N 35°29' E 139°54'0 0.0
2017-Feb-13 19:31N 35°29' E 139°54'0 0.0
2017-Feb-13 18:31N 35°29' E 139°54'0 0.0
2017-Feb-13 17:31N 35°29' E 139°54'0 0.0
2017-Feb-13 16:31N 35°29' E 139°54'0 0.0
2017-Feb-13 15:31N 35°29' E 139°54'0 0.0
2017-Feb-13 13:28N 35°29' E 139°54'0 0.0
2017-Feb-13 12:31N 35°29' E 139°54'0 0.0
2017-Feb-13 09:31N 35°29' E 139°54'0 0.0
2017-Feb-13 07:22N 35°29' E 139°54'0 0.0
2017-Feb-13 06:22N 35°29' E 139°54'0 0.0
2017-Feb-13 05:31N 35°29' E 139°54'0 0.0
2017-Feb-13 04:31N 35°29' E 139°54'0 0.0
2017-Feb-13 03:31N 35°29' E 139°54'0 0.0
2017-Feb-13 02:07N 35°29' E 139°54'0 0.0
2017-Feb-13 01:19N 35°29' E 139°54'0 0.0
2017-Feb-13 00:31N 35°29' E 139°54'0 0.0
2017-Feb-12 23:10N 35°29' E 139°54'0 0.1
2017-Feb-12 22:31N 35°29' E 139°54'0 0.0
2017-Feb-12 21:25N 35°29' E 139°54'0 0.1
2017-Feb-12 20:31N 35°29' E 139°54'0 0.0
2017-Feb-12 18:25N 35°29' E 139°54'0 0.0
2017-Feb-12 17:31N 35°29' E 139°54'0 0.0
2017-Feb-12 16:28N 35°29' E 139°54'0 0.0
2017-Feb-12 15:31N 35°29' E 139°54'0 0.0
2017-Feb-12 14:31N 35°29' E 139°54'0 0.0
2017-Feb-12 13:31N 35°29' E 139°54'0 0.0
2017-Feb-12 12:31N 35°29' E 139°54'0 0.0
2017-Feb-12 11:31N 35°29' E 139°54'0 0.0
2017-Feb-12 10:28N 35°29' E 139°54'0 0.0
2017-Feb-12 09:31N 35°29' E 139°54'0 0.1
2017-Feb-12 08:33N 35°29' E 139°54'1110.7
2017-Feb-12 07:33N 35°21' E 139°45'  

Dump ship's entire track history